Winona, TX

12:54 AM CST on November 26, 2014 (GMT -0600)
Southern Hills Golf Club | Change Station
CLOSE
Current Station
Personal Weather Station
Location: Gladewater, TX
Elevation: 322 ft
Nearby Weather Stations

Elev 322 ft 32.46 °N, 94.93 °W | Updated 10 seconds ago

Partly Cloudy
Partly Cloudy
38.8 °F
Feels Like 39 °F
N
0.0
Wind Variable Wind from East
Gusts 0.0 mph

Today
High -- | Low -- °F
--% Chance of Precip.
Yesterday
High -- | Low -- °F
Precip. -- in
6:59 AM 5:15 PM
Waxing Crescent, 17% visible
Pressure 30.14 in
Visibility 10.0 miles
Clouds Clear
Windchill 39 °F
Dew Point 39 °F
Humidity 99%
Rainfall 0.00 in
Snow Depth Not available.
UV 0 out of 12
Pollen 1.10 out of 12
Air Quality Not available.
Flu Activity Not available.
METAR KTYR 260553Z 19007KT 10SM CLR 07/01 A3015 RMK AO2 SLP207 T00670011 10139 20061 401830017 58007

More Conditions Fewer Conditions

Pressure 30.14 in
Visibility 10.0 miles
Clouds Clear
Windchill 39 °F
Dew Point 39 °F
Humidity 99%
Rainfall 0.00 in
Snow Depth Not available.
UV 0 out of 12
Pollen 1.10 out of 12
Air Quality Not available.
Flu Activity Not available.
METAR KTYR 260553Z 19007KT 10SM CLR 07/01 A3015 RMK AO2 SLP207 T00670011 10139 20061 401830017 58007

More Conditions Fewer Conditions

10-Day Weather Forecast

Almanac

Astronomy

Nov. 26, 2014 Rise Set
Actual Time
Civil Twilight
Nautical Twilight
Astronomical Twilight
Moon
Length of Visible Light
Length of Day
Tomorrow will be .
, % of the Moon is Illuminated

Today's Extremes

State Highs State Lows

Community

WunderPhotos

Upload Photos

1,773,691 photos uploaded!

WunderBlogs® & News

Nearby

Air Quality

  Air Quality AQ Index Pollutant
Not available.

Snow Depth

Station Depth Elevation

Earthquake Activity

City Distance Mag. Time & Date
Minimum magnitude displayed is 2.5.

Coastal Water Temperatures

Place Temperature

Nearby Weather Stations